sensor_id;sensor_type;location;lat;lon;timestamp;temperature;humidity
28546;DHT22;15749;49.606;8.738;2023-02-15T00:00:28;10.30;73.60
28546;DHT22;15749;49.606;8.738;2023-02-15T00:02:57;10.30;73.70
28546;DHT22;15749;49.606;8.738;2023-02-15T00:05:26;10.30;73.80
28546;DHT22;15749;49.606;8.738;2023-02-15T00:07:58;10.30;73.90
28546;DHT22;15749;49.606;8.738;2023-02-15T00:10:27;10.30;74.00
28546;DHT22;15749;49.606;8.738;2023-02-15T00:12:56;10.30;73.90
28546;DHT22;15749;49.606;8.738;2023-02-15T00:15:28;10.30;74.00
28546;DHT22;15749;49.606;8.738;2023-02-15T00:17:57;10.30;74.00
28546;DHT22;15749;49.606;8.738;2023-02-15T00:20:26;10.30;74.10
28546;DHT22;15749;49.606;8.738;2023-02-15T00:22:55;10.30;74.00
28546;DHT22;15749;49.606;8.738;2023-02-15T00:25:26;10.30;74.10
28546;DHT22;15749;49.606;8.738;2023-02-15T00:27:59;10.30;74.00
28546;DHT22;15749;49.606;8.738;2023-02-15T00:30:28;10.20;74.00
28546;DHT22;15749;49.606;8.738;2023-02-15T00:32:57;10.20;73.90
28546;DHT22;15749;49.606;8.738;2023-02-15T00:35:26;10.20;74.00
28546;DHT22;15749;49.606;8.738;2023-02-15T00:37:56;10.20;74.00
28546;DHT22;15749;49.606;8.738;2023-02-15T00:40:29;10.20;74.10
28546;DHT22;15749;49.606;8.738;2023-02-15T00:42:58;10.20;74.30
28546;DHT22;15749;49.606;8.738;2023-02-15T00:45:27;10.20;74.20
28546;DHT22;15749;49.606;8.738;2023-02-15T00:47:56;10.20;74.90
28546;DHT22;15749;49.606;8.738;2023-02-15T00:50:25;10.20;74.10
28546;DHT22;15749;49.606;8.738;2023-02-15T00:52:54;10.20;74.00
28546;DHT22;15749;49.606;8.738;2023-02-15T00:55:23;10.10;73.90
28546;DHT22;15749;49.606;8.738;2023-02-15T00:57:53;10.20;74.00
28546;DHT22;15749;49.606;8.738;2023-02-15T01:00:22;10.10;74.10
28546;DHT22;15749;49.606;8.738;2023-02-15T01:02:51;10.10;74.10
28546;DHT22;15749;49.606;8.738;2023-02-15T01:05:20;10.10;74.30
28546;DHT22;15749;49.606;8.738;2023-02-15T01:07:49;10.10;74.20
28546;DHT22;15749;49.606;8.738;2023-02-15T01:10:21;10.10;74.10
28546;DHT22;15749;49.606;8.738;2023-02-15T01:12:50;10.10;74.20
28546;DHT22;15749;49.606;8.738;2023-02-15T01:15:21;10.00;74.00
28546;DHT22;15749;49.606;8.738;2023-02-15T01:17:51;10.00;74.10
28546;DHT22;15749;49.606;8.738;2023-02-15T01:20:24;10.00;74.00
28546;DHT22;15749;49.606;8.738;2023-02-15T01:22:56;10.00;74.10
28546;DHT22;15749;49.606;8.738;2023-02-15T01:25:25;10.00;74.00
28546;DHT22;15749;49.606;8.738;2023-02-15T01:27:57;9.90;73.70
28546;DHT22;15749;49.606;8.738;2023-02-15T01:30:27;9.90;73.70
28546;DHT22;15749;49.606;8.738;2023-02-15T01:32:56;9.90;73.90
28546;DHT22;15749;49.606;8.738;2023-02-15T01:35:26;9.90;73.90
28546;DHT22;15749;49.606;8.738;2023-02-15T01:37:55;9.90;74.00
28546;DHT22;15749;49.606;8.738;2023-02-15T01:40:27;9.80;74.00
28546;DHT22;15749;49.606;8.738;2023-02-15T01:42:56;9.80;74.10
28546;DHT22;15749;49.606;8.738;2023-02-15T01:45:28;9.80;74.10
28546;DHT22;15749;49.606;8.738;2023-02-15T01:48:02;9.70;74.20
28546;DHT22;15749;49.606;8.738;2023-02-15T01:50:35;9.70;75.00
28546;DHT22;15749;49.606;8.738;2023-02-15T01:53:09;9.70;74.20
28546;DHT22;15749;49.606;8.738;2023-02-15T01:55:49;9.70;74.20
28546;DHT22;15749;49.606;8.738;2023-02-15T01:58:22;9.70;74.20
28546;DHT22;15749;49.606;8.738;2023-02-15T02:00:53;9.70;74.80
28546;DHT22;15749;49.606;8.738;2023-02-15T02:03:30;9.70;74.10
28546;DHT22;15749;49.606;8.738;2023-02-15T02:06:05;9.60;74.30
28546;DHT22;15749;49.606;8.738;2023-02-15T02:08:34;9.60;74.10
28546;DHT22;15749;49.606;8.738;2023-02-15T02:11:10;9.60;74.10
28546;DHT22;15749;49.606;8.738;2023-02-15T02:13:39;9.60;74.20
28546;DHT22;15749;49.606;8.738;2023-02-15T02:16:15;9.60;74.00
28546;DHT22;15749;49.606;8.738;2023-02-15T02:25:42;9.50;74.50
28546;DHT22;15749;49.606;8.738;2023-02-15T02:28:37;9.50;74.40
28546;DHT22;15749;49.606;8.738;2023-02-15T02:31:52;9.50;74.30
28546;DHT22;15749;49.606;8.738;2023-02-15T02:34:34;9.40;74.60
28546;DHT22;15749;49.606;8.738;2023-02-15T02:37:13;9.40;74.30
28546;DHT22;15749;49.606;8.738;2023-02-15T02:39:53;9.40;74.60
28546;DHT22;15749;49.606;8.738;2023-02-15T02:42:31;9.40;74.60
28546;DHT22;15749;49.606;8.738;2023-02-15T02:45:07;9.40;74.70
28546;DHT22;15749;49.606;8.738;2023-02-15T02:47:41;9.40;74.60
28546;DHT22;15749;49.606;8.738;2023-02-15T02:50:16;9.40;74.70
28546;DHT22;15749;49.606;8.738;2023-02-15T02:52:48;9.40;74.70
28546;DHT22;15749;49.606;8.738;2023-02-15T02:55:24;9.30;74.70
28546;DHT22;15749;49.606;8.738;2023-02-15T02:58:00;9.40;75.10
28546;DHT22;15749;49.606;8.738;2023-02-15T03:00:37;9.40;75.10
28546;DHT22;15749;49.606;8.738;2023-02-15T03:03:11;9.40;75.00
28546;DHT22;15749;49.606;8.738;2023-02-15T03:05:46;9.40;75.60
28546;DHT22;15749;49.606;8.738;2023-02-15T03:08:19;9.30;74.90
28546;DHT22;15749;49.606;8.738;2023-02-15T03:10:54;9.30;74.90
28546;DHT22;15749;49.606;8.738;2023-02-15T03:13:24;9.30;74.70
28546;DHT22;15749;49.606;8.738;2023-02-15T03:15:54;9.30;75.50
28546;DHT22;15749;49.606;8.738;2023-02-15T03:18:44;9.30;74.70
28546;DHT22;15749;49.606;8.738;2023-02-15T03:21:27;9.30;74.80
28546;DHT22;15749;49.606;8.738;2023-02-15T03:24:08;9.30;74.70
28546;DHT22;15749;49.606;8.738;2023-02-15T03:26:40;9.30;74.60
28546;DHT22;15749;49.606;8.738;2023-02-15T03:29:13;9.30;74.60
28546;DHT22;15749;49.606;8.738;2023-02-15T03:31:47;9.30;74.60
28546;DHT22;15749;49.606;8.738;2023-02-15T03:34:19;9.30;74.70
28546;DHT22;15749;49.606;8.738;2023-02-15T03:36:54;9.30;74.90
28546;DHT22;15749;49.606;8.738;2023-02-15T03:39:30;9.30;74.90
28546;DHT22;15749;49.606;8.738;2023-02-15T03:42:08;9.30;74.90
28546;DHT22;15749;49.606;8.738;2023-02-15T03:44:48;9.30;75.10
28546;DHT22;15749;49.606;8.738;2023-02-15T03:47:23;9.30;75.20
28546;DHT22;15749;49.606;8.738;2023-02-15T03:50:01;9.40;75.20
28546;DHT22;15749;49.606;8.738;2023-02-15T03:52:55;9.40;75.10
28546;DHT22;15749;49.606;8.738;2023-02-15T03:55:24;9.40;75.00
28546;DHT22;15749;49.606;8.738;2023-02-15T03:57:53;9.40;74.90
28546;DHT22;15749;49.606;8.738;2023-02-15T04:00:48;9.40;74.80
28546;DHT22;15749;49.606;8.738;2023-02-15T04:03:40;9.40;74.90
28546;DHT22;15749;49.606;8.738;2023-02-15T04:06:10;9.40;74.90
28546;DHT22;15749;49.606;8.738;2023-02-15T04:08:41;9.40;74.90
28546;DHT22;15749;49.606;8.738;2023-02-15T04:11:32;9.40;75.80
28546;DHT22;15749;49.606;8.738;2023-02-15T04:14:01;9.40;74.90
28546;DHT22;15749;49.606;8.738;2023-02-15T04:16:50;9.40;75.60
28546;DHT22;15749;49.606;8.738;2023-02-15T04:19:21;9.40;74.80
28546;DHT22;15749;49.606;8.738;2023-02-15T04:22:11;9.40;75.60
28546;DHT22;15749;49.606;8.738;2023-02-15T04:24:59;9.40;74.90
28546;DHT22;15749;49.606;8.738;2023-02-15T04:27:45;9.40;75.00
28546;DHT22;15749;49.606;8.738;2023-02-15T04:30:17;9.40;75.10
28546;DHT22;15749;49.606;8.738;2023-02-15T04:32:49;9.40;75.00
28546;DHT22;15749;49.606;8.738;2023-02-15T04:35:18;9.40;75.00
28546;DHT22;15749;49.606;8.738;2023-02-15T04:37:50;9.40;75.00
28546;DHT22;15749;49.606;8.738;2023-02-15T04:40:20;9.40;74.70
28546;DHT22;15749;49.606;8.738;2023-02-15T04:42:49;9.30;74.80
28546;DHT22;15749;49.606;8.738;2023-02-15T04:45:18;9.30;74.80
28546;DHT22;15749;49.606;8.738;2023-02-15T04:47:48;9.30;74.90
28546;DHT22;15749;49.606;8.738;2023-02-15T04:50:19;9.30;75.00
28546;DHT22;15749;49.606;8.738;2023-02-15T04:52:48;9.30;75.10
28546;DHT22;15749;49.606;8.738;2023-02-15T04:55:22;9.30;74.90
28546;DHT22;15749;49.606;8.738;2023-02-15T04:57:51;9.30;75.10
28546;DHT22;15749;49.606;8.738;2023-02-15T05:00:20;9.30;75.80
28546;DHT22;15749;49.606;8.738;2023-02-15T05:02:51;9.30;75.20
28546;DHT22;15749;49.606;8.738;2023-02-15T05:05:20;9.30;75.20
28546;DHT22;15749;49.606;8.738;2023-02-15T05:07:49;9.30;75.20
28546;DHT22;15749;49.606;8.738;2023-02-15T05:10:18;9.30;76.00
28546;DHT22;15749;49.606;8.738;2023-02-15T05:12:49;9.30;75.50
28546;DHT22;15749;49.606;8.738;2023-02-15T05:15:18;9.30;75.60
28546;DHT22;15749;49.606;8.738;2023-02-15T05:17:50;9.30;76.40
28546;DHT22;15749;49.606;8.738;2023-02-15T05:20:19;9.30;75.70
28546;DHT22;15749;49.606;8.738;2023-02-15T05:22:48;9.30;76.40
28546;DHT22;15749;49.606;8.738;2023-02-15T05:25:19;9.30;75.60
28546;DHT22;15749;49.606;8.738;2023-02-15T05:28:10;9.30;76.30
28546;DHT22;15749;49.606;8.738;2023-02-15T05:30:49;9.30;75.70
28546;DHT22;15749;49.606;8.738;2023-02-15T05:33:20;9.30;75.50
28546;DHT22;15749;49.606;8.738;2023-02-15T05:35:49;9.30;75.60
28546;DHT22;15749;49.606;8.738;2023-02-15T05:38:18;9.30;75.60
28546;DHT22;15749;49.606;8.738;2023-02-15T05:40:47;9.30;75.60
28546;DHT22;15749;49.606;8.738;2023-02-15T05:43:18;9.30;75.60
28546;DHT22;15749;49.606;8.738;2023-02-15T05:45:48;9.30;76.40
28546;DHT22;15749;49.606;8.738;2023-02-15T05:48:17;9.30;75.60
28546;DHT22;15749;49.606;8.738;2023-02-15T05:50:56;9.30;75.60
28546;DHT22;15749;49.606;8.738;2023-02-15T05:53:27;9.30;76.10
28546;DHT22;15749;49.606;8.738;2023-02-15T05:55:57;9.30;75.80
28546;DHT22;15749;49.606;8.738;2023-02-15T05:58:33;9.30;75.80
28546;DHT22;15749;49.606;8.738;2023-02-15T06:01:08;9.30;75.90
28546;DHT22;15749;49.606;8.738;2023-02-15T06:03:37;9.30;76.00
28546;DHT22;15749;49.606;8.738;2023-02-15T06:06:10;9.30;75.80
28546;DHT22;15749;49.606;8.738;2023-02-15T06:08:39;9.30;75.70
28546;DHT22;15749;49.606;8.738;2023-02-15T06:11:08;9.30;76.30
28546;DHT22;15749;49.606;8.738;2023-02-15T06:13:39;9.30;75.50
28546;DHT22;15749;49.606;8.738;2023-02-15T06:16:08;9.30;75.50
28546;DHT22;15749;49.606;8.738;2023-02-15T06:18:38;9.30;75.50
28546;DHT22;15749;49.606;8.738;2023-02-15T06:21:07;9.30;75.60
28546;DHT22;15749;49.606;8.738;2023-02-15T06:23:36;9.20;75.50
28546;DHT22;15749;49.606;8.738;2023-02-15T06:26:05;9.30;75.60
28546;DHT22;15749;49.606;8.738;2023-02-15T06:28:34;9.30;76.40
28546;DHT22;15749;49.606;8.738;2023-02-15T06:31:06;9.30;75.70
28546;DHT22;15749;49.606;8.738;2023-02-15T06:33:38;9.30;75.80
28546;DHT22;15749;49.606;8.738;2023-02-15T06:36:07;9.30;75.80
28546;DHT22;15749;49.606;8.738;2023-02-15T06:38:36;9.20;76.40
28546;DHT22;15749;49.606;8.738;2023-02-15T06:41:05;9.30;75.70
28546;DHT22;15749;49.606;8.738;2023-02-15T06:43:34;9.30;76.40
28546;DHT22;15749;49.606;8.738;2023-02-15T06:46:05;9.30;75.80
28546;DHT22;15749;49.606;8.738;2023-02-15T06:48:34;9.30;75.80
28546;DHT22;15749;49.606;8.738;2023-02-15T06:51:04;9.30;75.80
28546;DHT22;15749;49.606;8.738;2023-02-15T06:53:33;9.30;75.70
28546;DHT22;15749;49.606;8.738;2023-02-15T06:56:03;9.30;75.80
28546;DHT22;15749;49.606;8.738;2023-02-15T06:58:34;9.30;75.90
28546;DHT22;15749;49.606;8.738;2023-02-15T07:01:03;9.30;75.80
28546;DHT22;15749;49.606;8.738;2023-02-15T07:03:34;9.30;75.90
28546;DHT22;15749;49.606;8.738;2023-02-15T07:06:04;9.30;76.00
28546;DHT22;15749;49.606;8.738;2023-02-15T07:08:36;9.30;76.00
28546;DHT22;15749;49.606;8.738;2023-02-15T07:11:06;9.30;76.10
28546;DHT22;15749;49.606;8.738;2023-02-15T07:13:53;9.30;76.20
28546;DHT22;15749;49.606;8.738;2023-02-15T07:16:22;9.40;76.10
28546;DHT22;15749;49.606;8.738;2023-02-15T07:18:52;9.30;75.90
28546;DHT22;15749;49.606;8.738;2023-02-15T07:21:21;9.30;75.90
28546;DHT22;15749;49.606;8.738;2023-02-15T07:23:50;9.30;75.80
28546;DHT22;15749;49.606;8.738;2023-02-15T07:26:20;9.40;75.90
28546;DHT22;15749;49.606;8.738;2023-02-15T07:28:49;9.40;76.60
28546;DHT22;15749;49.606;8.738;2023-02-15T07:31:18;9.40;75.90
28546;DHT22;15749;49.606;8.738;2023-02-15T07:33:47;9.40;76.00
28546;DHT22;15749;49.606;8.738;2023-02-15T07:36:18;9.40;76.70
28546;DHT22;15749;49.606;8.738;2023-02-15T07:38:47;9.40;76.80
28546;DHT22;15749;49.606;8.738;2023-02-15T07:41:16;9.40;76.60
28546;DHT22;15749;49.606;8.738;2023-02-15T07:43:47;9.40;75.80
28546;DHT22;15749;49.606;8.738;2023-02-15T07:46:17;9.40;75.80
28546;DHT22;15749;49.606;8.738;2023-02-15T07:48:47;9.40;75.80
28546;DHT22;15749;49.606;8.738;2023-02-15T07:51:18;9.40;75.80
28546;DHT22;15749;49.606;8.738;2023-02-15T07:53:50;9.40;75.80
28546;DHT22;15749;49.606;8.738;2023-02-15T07:56:19;9.40;75.70
28546;DHT22;15749;49.606;8.738;2023-02-15T07:58:48;9.40;75.60
28546;DHT22;15749;49.606;8.738;2023-02-15T08:01:23;9.40;75.60
28546;DHT22;15749;49.606;8.738;2023-02-15T08:03:53;9.40;75.70
28546;DHT22;15749;49.606;8.738;2023-02-15T08:06:26;9.40;75.80
28546;DHT22;15749;49.606;8.738;2023-02-15T08:08:56;9.40;76.00
28546;DHT22;15749;49.606;8.738;2023-02-15T08:11:27;9.40;75.80
28546;DHT22;15749;49.606;8.738;2023-02-15T08:14:01;9.40;76.00
28546;DHT22;15749;49.606;8.738;2023-02-15T08:16:33;9.40;76.00
28546;DHT22;15749;49.606;8.738;2023-02-15T08:19:05;9.40;76.00
28546;DHT22;15749;49.606;8.738;2023-02-15T08:21:38;9.40;76.00
28546;DHT22;15749;49.606;8.738;2023-02-15T08:24:10;9.40;76.00
28546;DHT22;15749;49.606;8.738;2023-02-15T08:26:41;9.40;75.90
28546;DHT22;15749;49.606;8.738;2023-02-15T08:29:17;9.40;76.00
28546;DHT22;15749;49.606;8.738;2023-02-15T08:31:56;9.50;76.00
28546;DHT22;15749;49.606;8.738;2023-02-15T08:34:36;9.50;76.20
28546;DHT22;15749;49.606;8.738;2023-02-15T08:37:09;9.50;76.10
28546;DHT22;15749;49.606;8.738;2023-02-15T08:39:38;9.50;76.00
28546;DHT22;15749;49.606;8.738;2023-02-15T08:42:10;9.50;75.90
28546;DHT22;15749;49.606;8.738;2023-02-15T08:44:39;9.50;75.90
28546;DHT22;15749;49.606;8.738;2023-02-15T08:47:08;9.50;76.60
28546;DHT22;15749;49.606;8.738;2023-02-15T08:49:40;9.50;75.80
28546;DHT22;15749;49.606;8.738;2023-02-15T08:52:14;9.50;75.90
28546;DHT22;15749;49.606;8.738;2023-02-15T08:54:47;9.50;76.00
28546;DHT22;15749;49.606;8.738;2023-02-15T08:57:16;9.60;76.80
28546;DHT22;15749;49.606;8.738;2023-02-15T08:59:51;9.60;76.10
28546;DHT22;15749;49.606;8.738;2023-02-15T09:02:29;9.60;76.10
28546;DHT22;15749;49.606;8.738;2023-02-15T09:05:01;9.60;76.00
28546;DHT22;15749;49.606;8.738;2023-02-15T09:07:38;9.60;76.00
28546;DHT22;15749;49.606;8.738;2023-02-15T09:10:11;9.60;76.00
28546;DHT22;15749;49.606;8.738;2023-02-15T09:12:45;9.60;76.00
28546;DHT22;15749;49.606;8.738;2023-02-15T09:15:21;9.70;76.00
28546;DHT22;15749;49.606;8.738;2023-02-15T09:17:53;9.70;76.00
28546;DHT22;15749;49.606;8.738;2023-02-15T09:20:27;9.70;76.20
28546;DHT22;15749;49.606;8.738;2023-02-15T09:23:01;9.70;76.30
28546;DHT22;15749;49.606;8.738;2023-02-15T09:25:36;9.70;76.30
28546;DHT22;15749;49.606;8.738;2023-02-15T09:28:11;9.70;76.20
28546;DHT22;15749;49.606;8.738;2023-02-15T09:30:47;9.70;76.20
28546;DHT22;15749;49.606;8.738;2023-02-15T09:33:26;9.80;76.40
28546;DHT22;15749;49.606;8.738;2023-02-15T09:35:55;9.80;76.40
28546;DHT22;15749;49.606;8.738;2023-02-15T09:38:26;9.80;77.20
28546;DHT22;15749;49.606;8.738;2023-02-15T09:41:06;9.80;76.50
28546;DHT22;15749;49.606;8.738;2023-02-15T09:43:51;9.80;77.40
28546;DHT22;15749;49.606;8.738;2023-02-15T09:46:43;9.90;76.80
28546;DHT22;15749;49.606;8.738;2023-02-15T09:49:28;9.90;77.60
28546;DHT22;15749;49.606;8.738;2023-02-15T09:52:12;9.90;76.80
28546;DHT22;15749;49.606;8.738;2023-02-15T09:55:09;9.90;76.90
28546;DHT22;15749;49.606;8.738;2023-02-15T09:57:47;9.90;77.10
28546;DHT22;15749;49.606;8.738;2023-02-15T10:00:27;9.90;76.80
28546;DHT22;15749;49.606;8.738;2023-02-15T10:03:11;10.00;76.80
28546;DHT22;15749;49.606;8.738;2023-02-15T10:06:04;10.00;77.60
28546;DHT22;15749;49.606;8.738;2023-02-15T10:09:03;10.10;77.10
28546;DHT22;15749;49.606;8.738;2023-02-15T10:11:48;10.00;77.00
28546;DHT22;15749;49.606;8.738;2023-02-15T10:14:54;10.10;77.70
28546;DHT22;15749;49.606;8.738;2023-02-15T10:17:42;10.10;77.20
28546;DHT22;15749;49.606;8.738;2023-02-15T10:20:27;10.10;76.90
28546;DHT22;15749;49.606;8.738;2023-02-15T10:23:21;10.10;76.90
28546;DHT22;15749;49.606;8.738;2023-02-15T10:26:04;10.10;77.00
28546;DHT22;15749;49.606;8.738;2023-02-15T10:28:46;10.10;77.60
28546;DHT22;15749;49.606;8.738;2023-02-15T10:31:27;10.10;76.80
28546;DHT22;15749;49.606;8.738;2023-02-15T10:34:12;10.20;76.70
28546;DHT22;15749;49.606;8.738;2023-02-15T10:37:05;10.20;76.60
28546;DHT22;15749;49.606;8.738;2023-02-15T10:39:52;10.20;76.80
28546;DHT22;15749;49.606;8.738;2023-02-15T10:42:33;10.20;77.30
28546;DHT22;15749;49.606;8.738;2023-02-15T10:45:18;10.20;76.40
28546;DHT22;15749;49.606;8.738;2023-02-15T10:48:06;10.20;76.20
28546;DHT22;15749;49.606;8.738;2023-02-15T10:50:48;10.20;76.40
28546;DHT22;15749;49.606;8.738;2023-02-15T10:53:55;10.20;76.50
28546;DHT22;15749;49.606;8.738;2023-02-15T10:56:36;10.20;77.00
28546;DHT22;15749;49.606;8.738;2023-02-15T10:59:21;10.20;77.40
28546;DHT22;15749;49.606;8.738;2023-02-15T11:02:00;10.30;76.90
28546;DHT22;15749;49.606;8.738;2023-02-15T11:07:35;10.20;76.80
28546;DHT22;15749;49.606;8.738;2023-02-15T11:10:19;10.30;76.70
28546;DHT22;15749;49.606;8.738;2023-02-15T11:12:55;10.30;77.70
28546;DHT22;15749;49.606;8.738;2023-02-15T11:15:31;10.30;76.90
28546;DHT22;15749;49.606;8.738;2023-02-15T11:18:11;10.30;76.90
28546;DHT22;15749;49.606;8.738;2023-02-15T11:20:45;10.30;77.00
28546;DHT22;15749;49.606;8.738;2023-02-15T11:23:20;10.30;76.90
28546;DHT22;15749;49.606;8.738;2023-02-15T11:25:54;10.30;76.90
28546;DHT22;15749;49.606;8.738;2023-02-15T11:28:30;10.30;77.20
28546;DHT22;15749;49.606;8.738;2023-02-15T11:31:10;10.30;77.10
28546;DHT22;15749;49.606;8.738;2023-02-15T11:33:45;10.30;77.00
28546;DHT22;15749;49.606;8.738;2023-02-15T11:36:19;10.40;77.10
28546;DHT22;15749;49.606;8.738;2023-02-15T11:38:56;10.40;77.00
28546;DHT22;15749;49.606;8.738;2023-02-15T11:41:29;10.40;77.00
28546;DHT22;15749;49.606;8.738;2023-02-15T11:44:05;10.40;77.00
28546;DHT22;15749;49.606;8.738;2023-02-15T11:46:36;10.40;77.20
28546;DHT22;15749;49.606;8.738;2023-02-15T11:49:27;10.40;76.90
28546;DHT22;15749;49.606;8.738;2023-02-15T11:52:00;10.40;78.00
28546;DHT22;15749;49.606;8.738;2023-02-15T11:54:34;10.40;77.00
28546;DHT22;15749;49.606;8.738;2023-02-15T11:57:11;10.40;77.10
28546;DHT22;15749;49.606;8.738;2023-02-15T11:59:46;10.40;77.30
28546;DHT22;15749;49.606;8.738;2023-02-15T12:02:19;10.50;77.20
28546;DHT22;15749;49.606;8.738;2023-02-15T12:04:52;10.40;77.20
28546;DHT22;15749;49.606;8.738;2023-02-15T12:07:26;10.50;77.30
28546;DHT22;15749;49.606;8.738;2023-02-15T12:10:02;10.50;77.30
28546;DHT22;15749;49.606;8.738;2023-02-15T12:12:39;10.50;77.50
28546;DHT22;15749;49.606;8.738;2023-02-15T12:15:13;10.60;77.40
28546;DHT22;15749;49.606;8.738;2023-02-15T12:17:50;10.50;77.50
28546;DHT22;15749;49.606;8.738;2023-02-15T12:20:29;10.60;77.60
28546;DHT22;15749;49.606;8.738;2023-02-15T12:23:02;10.60;77.60
28546;DHT22;15749;49.606;8.738;2023-02-15T12:25:36;10.60;77.50
28546;DHT22;15749;49.606;8.738;2023-02-15T12:28:22;10.70;77.60
28546;DHT22;15749;49.606;8.738;2023-02-15T12:30:54;10.70;77.60
28546;DHT22;15749;49.606;8.738;2023-02-15T12:33:27;10.80;77.50
28546;DHT22;15749;49.606;8.738;2023-02-15T12:36:09;10.70;77.50
28546;DHT22;15749;49.606;8.738;2023-02-15T12:38:40;10.70;77.50
28546;DHT22;15749;49.606;8.738;2023-02-15T12:41:22;10.80;77.40
28546;DHT22;15749;49.606;8.738;2023-02-15T12:44:06;10.80;77.60
28546;DHT22;15749;49.606;8.738;2023-02-15T12:46:41;10.80;77.50
28546;DHT22;15749;49.606;8.738;2023-02-15T12:49:17;10.80;77.40
28546;DHT22;15749;49.606;8.738;2023-02-15T12:51:50;10.90;77.70
28546;DHT22;15749;49.606;8.738;2023-02-15T12:54:31;10.90;77.70
28546;DHT22;15749;49.606;8.738;2023-02-15T12:57:25;10.90;77.70
28546;DHT22;15749;49.606;8.738;2023-02-15T12:59:57;10.90;77.80
28546;DHT22;15749;49.606;8.738;2023-02-15T13:02:37;11.00;78.40
28546;DHT22;15749;49.606;8.738;2023-02-15T13:05:18;11.00;77.60
28546;DHT22;15749;49.606;8.738;2023-02-15T13:07:55;11.00;77.70
28546;DHT22;15749;49.606;8.738;2023-02-15T13:10:27;11.10;78.30
28546;DHT22;15749;49.606;8.738;2023-02-15T13:12:58;11.10;77.50
28546;DHT22;15749;49.606;8.738;2023-02-15T13:15:34;11.10;77.50
28546;DHT22;15749;49.606;8.738;2023-02-15T13:18:05;11.10;77.50
28546;DHT22;15749;49.606;8.738;2023-02-15T13:20:42;11.10;77.50
28546;DHT22;15749;49.606;8.738;2023-02-15T13:23:23;11.20;77.60
28546;DHT22;15749;49.606;8.738;2023-02-15T13:25:57;11.20;77.80
28546;DHT22;15749;49.606;8.738;2023-02-15T13:28:34;11.20;77.60
28546;DHT22;15749;49.606;8.738;2023-02-15T13:31:13;11.20;77.60
28546;DHT22;15749;49.606;8.738;2023-02-15T13:33:48;11.30;77.80
28546;DHT22;15749;49.606;8.738;2023-02-15T13:36:23;11.30;77.60
28546;DHT22;15749;49.606;8.738;2023-02-15T13:39:06;11.30;77.60
28546;DHT22;15749;49.606;8.738;2023-02-15T13:41:50;11.30;77.60
28546;DHT22;15749;49.606;8.738;2023-02-15T13:44:37;11.30;77.60
28546;DHT22;15749;49.606;8.738;2023-02-15T13:47:25;11.30;77.60
28546;DHT22;15749;49.606;8.738;2023-02-15T13:50:08;11.30;77.60
28546;DHT22;15749;49.606;8.738;2023-02-15T13:52:56;11.40;77.80
28546;DHT22;15749;49.606;8.738;2023-02-15T13:55:43;11.40;77.80
28546;DHT22;15749;49.606;8.738;2023-02-15T13:58:34;11.40;77.80
28546;DHT22;15749;49.606;8.738;2023-02-15T14:01:36;11.40;77.90
28546;DHT22;15749;49.606;8.738;2023-02-15T14:07:43;11.50;78.60
28546;DHT22;15749;49.606;8.738;2023-02-15T14:10:27;11.50;77.90
28546;DHT22;15749;49.606;8.738;2023-02-15T14:16:30;11.50;77.70
28546;DHT22;15749;49.606;8.738;2023-02-15T14:19:11;11.60;77.60
28546;DHT22;15749;49.606;8.738;2023-02-15T14:21:48;11.60;77.70
28546;DHT22;15749;49.606;8.738;2023-02-15T14:24:30;11.60;77.60
28546;DHT22;15749;49.606;8.738;2023-02-15T14:27:10;11.60;77.90
28546;DHT22;15749;49.606;8.738;2023-02-15T14:29:50;11.60;78.60
28546;DHT22;15749;49.606;8.738;2023-02-15T14:32:27;11.60;77.80
28546;DHT22;15749;49.606;8.738;2023-02-15T14:35:02;11.70;77.80
28546;DHT22;15749;49.606;8.738;2023-02-15T14:37:40;11.60;77.70
28546;DHT22;15749;49.606;8.738;2023-02-15T14:40:19;11.60;77.60
28546;DHT22;15749;49.606;8.738;2023-02-15T14:43:27;11.70;77.50
28546;DHT22;15749;49.606;8.738;2023-02-15T14:46:09;11.70;77.40
28546;DHT22;15749;49.606;8.738;2023-02-15T14:48:46;11.70;77.50
28546;DHT22;15749;49.606;8.738;2023-02-15T14:54:52;11.70;77.80
28546;DHT22;15749;49.606;8.738;2023-02-15T14:57:28;11.70;77.80
28546;DHT22;15749;49.606;8.738;2023-02-15T15:03:23;11.70;77.40
28546;DHT22;15749;49.606;8.738;2023-02-15T15:05:56;11.70;77.40
28546;DHT22;15749;49.606;8.738;2023-02-15T15:08:33;11.70;77.20
28546;DHT22;15749;49.606;8.738;2023-02-15T15:11:37;11.70;77.50
28546;DHT22;15749;49.606;8.738;2023-02-15T15:14:38;11.70;77.60
28546;DHT22;15749;49.606;8.738;2023-02-15T15:17:15;11.70;77.50
28546;DHT22;15749;49.606;8.738;2023-02-15T15:20:43;11.70;77.40
28546;DHT22;15749;49.606;8.738;2023-02-15T15:23:40;11.70;77.60
28546;DHT22;15749;49.606;8.738;2023-02-15T15:26:28;11.70;77.60
28546;DHT22;15749;49.606;8.738;2023-02-15T15:29:01;11.70;77.60
28546;DHT22;15749;49.606;8.738;2023-02-15T15:31:41;11.70;77.40
28546;DHT22;15749;49.606;8.738;2023-02-15T15:34:38;11.70;77.60
28546;DHT22;15749;49.606;8.738;2023-02-15T15:37:49;11.70;77.60
28546;DHT22;15749;49.606;8.738;2023-02-15T15:40:41;11.70;77.60
28546;DHT22;15749;49.606;8.738;2023-02-15T15:46:56;11.70;77.40
28546;DHT22;15749;49.606;8.738;2023-02-15T15:49:32;11.70;77.10
28546;DHT22;15749;49.606;8.738;2023-02-15T15:52:07;11.70;77.10
28546;DHT22;15749;49.606;8.738;2023-02-15T15:54:46;11.70;77.10
28546;DHT22;15749;49.606;8.738;2023-02-15T15:57:21;11.70;77.00
28546;DHT22;15749;49.606;8.738;2023-02-15T15:59:58;11.70;77.10
28546;DHT22;15749;49.606;8.738;2023-02-15T16:02:27;11.70;77.80
28546;DHT22;15749;49.606;8.738;2023-02-15T16:05:07;11.70;77.10
28546;DHT22;15749;49.606;8.738;2023-02-15T16:07:36;11.70;77.10
28546;DHT22;15749;49.606;8.738;2023-02-15T16:10:22;11.70;77.10
28546;DHT22;15749;49.606;8.738;2023-02-15T16:12:53;11.70;77.20
28546;DHT22;15749;49.606;8.738;2023-02-15T16:15:24;11.70;77.20
28546;DHT22;15749;49.606;8.738;2023-02-15T16:17:57;11.70;77.30
28546;DHT22;15749;49.606;8.738;2023-02-15T16:20:29;11.70;77.40
28546;DHT22;15749;49.606;8.738;2023-02-15T16:23:16;11.70;77.40
28546;DHT22;15749;49.606;8.738;2023-02-15T16:26:07;11.70;77.40
28546;DHT22;15749;49.606;8.738;2023-02-15T16:28:47;11.70;77.40
28546;DHT22;15749;49.606;8.738;2023-02-15T16:31:18;11.70;77.40
28546;DHT22;15749;49.606;8.738;2023-02-15T16:33:52;11.70;77.40
28546;DHT22;15749;49.606;8.738;2023-02-15T16:36:24;11.70;77.50
28546;DHT22;15749;49.606;8.738;2023-02-15T16:39:19;11.70;77.40
28546;DHT22;15749;49.606;8.738;2023-02-15T16:41:54;11.70;77.40
28546;DHT22;15749;49.606;8.738;2023-02-15T16:44:23;11.70;77.10
28546;DHT22;15749;49.606;8.738;2023-02-15T16:46:53;11.70;77.10
28546;DHT22;15749;49.606;8.738;2023-02-15T16:49:25;11.70;77.20
28546;DHT22;15749;49.606;8.738;2023-02-15T16:51:58;11.70;77.30
28546;DHT22;15749;49.606;8.738;2023-02-15T16:54:29;11.70;78.00
28546;DHT22;15749;49.606;8.738;2023-02-15T16:57:01;11.70;77.40
28546;DHT22;15749;49.606;8.738;2023-02-15T16:59:34;11.70;77.50